<?xml version="1.0" encoding="UTF-8" standalone="no" ?>
<gpx xmlns="http://www.topografix.com/GPX/1/1" xmlns:xsi="http://www.w3.org/2001/XMLSchema-instance" xsi:schemaLocation="http://www.topografix.com/GPX/1/1 http://www.topografix.com/GPX/1/1/gpx.xsd" version="1.1" creator="VisuGPX - https://www.visugpx.com">
  <metadata>
    <name>Tour de France 2019</name>
    <desc><![CDATA[4272km en 2 mois en tandem avec notre petit chien dans le panier avant]]></desc>
  </metadata>
  <trk>
    <name><![CDATA[Tracé 20191024-092239]]></name>
    <trkseg>
      <trkpt lat="43.28787" lon="5.3968">
        <ele>45.58</ele>
        <time>2019-10-24T07:23:30Z</time>
      </trkpt>
      <trkpt lat="43.28786" lon="5.39675">
        <ele>45.451</ele>
        <time>2019-10-24T07:26:18Z</time>
      </trkpt>
      <trkpt lat="43.28845" lon="5.39656">
        <ele>49.537</ele>
        <time>2019-10-24T07:27:33Z</time>
      </trkpt>
      <trkpt lat="43.28918" lon="5.39742">
        <ele>48.09</ele>
        <time>2019-10-24T07:28:09Z</time>
      </trkpt>
      <trkpt lat="43.28945" lon="5.39648">
        <ele>49.395</ele>
        <time>2019-10-24T07:28:42Z</time>
      </trkpt>
      <trkpt lat="43.28886" lon="5.39463">
        <ele>47.999</ele>
        <time>2019-10-24T07:29:12Z</time>
      </trkpt>
      <trkpt lat="43.28836" lon="5.3928">
        <ele>55.736</ele>
        <time>2019-10-24T07:29:42Z</time>
      </trkpt>
      <trkpt lat="43.28786" lon="5.39102">
        <ele>66.207</ele>
        <time>2019-10-24T07:30:12Z</time>
      </trkpt>
      <trkpt lat="43.28742" lon="5.38952">
        <ele>67.155</ele>
        <time>2019-10-24T07:30:42Z</time>
      </trkpt>
      <trkpt lat="43.28801" lon="5.38845">
        <ele>50.533</ele>
        <time>2019-10-24T07:31:12Z</time>
      </trkpt>
      <trkpt lat="43.28918" lon="5.38731">
        <ele>54.081</ele>
        <time>2019-10-24T07:31:45Z</time>
      </trkpt>
      <trkpt lat="43.29032" lon="5.38632">
        <ele>55.617</ele>
        <time>2019-10-24T07:32:15Z</time>
      </trkpt>
      <trkpt lat="43.29131" lon="5.38519">
        <ele>56.339</ele>
        <time>2019-10-24T07:32:45Z</time>
      </trkpt>
      <trkpt lat="43.29207" lon="5.38398">
        <ele>59.099</ele>
        <time>2019-10-24T07:33:15Z</time>
      </trkpt>
      <trkpt lat="43.29252" lon="5.38326">
        <ele>58.184</ele>
        <time>2019-10-24T07:33:51Z</time>
      </trkpt>
      <trkpt lat="43.29338" lon="5.38213">
        <ele>52.975</ele>
        <time>2019-10-24T07:34:21Z</time>
      </trkpt>
      <trkpt lat="43.29426" lon="5.38201">
        <ele>55.889</ele>
        <time>2019-10-24T07:35:06Z</time>
      </trkpt>
      <trkpt lat="43.29624" lon="5.38134">
        <ele>56.32</ele>
        <time>2019-10-24T07:35:36Z</time>
      </trkpt>
      <trkpt lat="43.29802" lon="5.38089">
        <ele>53.877</ele>
        <time>2019-10-24T07:36:06Z</time>
      </trkpt>
      <trkpt lat="43.29888" lon="5.38084">
        <ele>48.966</ele>
        <time>2019-10-24T07:37:06Z</time>
      </trkpt>
      <trkpt lat="43.29923" lon="5.38078">
        <ele>35.46</ele>
        <time>2019-10-24T07:37:39Z</time>
      </trkpt>
      <trkpt lat="43.29935" lon="5.37941">
        <ele>23.239</ele>
        <time>2019-10-24T07:38:09Z</time>
      </trkpt>
      <trkpt lat="43.2995" lon="5.37867">
        <ele>19.415</ele>
        <time>2019-10-24T07:38:48Z</time>
      </trkpt>
      <trkpt lat="43.29954" lon="5.37753">
        <ele>24.503</ele>
        <time>2019-10-24T07:39:21Z</time>
      </trkpt>
      <trkpt lat="43.29937" lon="5.37683">
        <ele>29.596</ele>
        <time>2019-10-24T07:40:03Z</time>
      </trkpt>
      <trkpt lat="43.29911" lon="5.37508">
        <ele>42.683</ele>
        <time>2019-10-24T07:40:39Z</time>
      </trkpt>
      <trkpt lat="43.2993" lon="5.37392">
        <ele>37.292</ele>
        <time>2019-10-24T07:41:24Z</time>
      </trkpt>
      <trkpt lat="43.29938" lon="5.37218">
        <ele>24.744</ele>
        <time>2019-10-24T07:41:54Z</time>
      </trkpt>
      <trkpt lat="43.29983" lon="5.37142">
        <ele>16.89</ele>
        <time>2019-10-24T07:42:24Z</time>
      </trkpt>
      <trkpt lat="43.30129" lon="5.36989">
        <ele>22.469</ele>
        <time>2019-10-24T07:42:57Z</time>
      </trkpt>
      <trkpt lat="43.30196" lon="5.36928">
        <ele>27.207</ele>
        <time>2019-10-24T07:43:30Z</time>
      </trkpt>
      <trkpt lat="43.3035" lon="5.36815">
        <ele>25.547</ele>
        <time>2019-10-24T07:44:00Z</time>
      </trkpt>
      <trkpt lat="43.30449" lon="5.36726">
        <ele>23.548</ele>
        <time>2019-10-24T07:45:06Z</time>
      </trkpt>
      <trkpt lat="43.30514" lon="5.36633">
        <ele>25.244</ele>
        <time>2019-10-24T07:45:39Z</time>
      </trkpt>
      <trkpt lat="43.30529" lon="5.36563">
        <ele>19.327</ele>
        <time>2019-10-24T07:46:12Z</time>
      </trkpt>
      <trkpt lat="43.30434" lon="5.36507">
        <ele>13.858</ele>
        <time>2019-10-24T07:46:42Z</time>
      </trkpt>
      <trkpt lat="43.30334" lon="5.36464">
        <ele>10.664</ele>
        <time>2019-10-24T07:47:15Z</time>
      </trkpt>
      <trkpt lat="43.30353" lon="5.36486">
        <ele>7.548</ele>
        <time>2019-10-24T07:49:18Z</time>
      </trkpt>
      <trkpt lat="43.30328" lon="5.36603">
        <ele>15.837</ele>
        <time>2019-10-24T07:49:51Z</time>
      </trkpt>
      <trkpt lat="43.303" lon="5.36761">
        <ele>33.761</ele>
        <time>2019-10-24T07:50:21Z</time>
      </trkpt>
      <trkpt lat="43.30265" lon="5.36885">
        <ele>33.29</ele>
        <time>2019-10-24T07:50:51Z</time>
      </trkpt>
      <trkpt lat="43.30156" lon="5.36968">
        <ele>40.466</ele>
        <time>2019-10-24T07:51:21Z</time>
      </trkpt>
      <trkpt lat="43.30031" lon="5.37075">
        <ele>45.799</ele>
        <time>2019-10-24T07:51:54Z</time>
      </trkpt>
      <trkpt lat="43.29929" lon="5.37149">
        <ele>42.334</ele>
        <time>2019-10-24T07:52:24.001Z</time>
      </trkpt>
      <trkpt lat="43.29793" lon="5.37269">
        <ele>33.797</ele>
        <time>2019-10-24T07:52:54.001Z</time>
      </trkpt>
      <trkpt lat="43.29642" lon="5.37388">
        <ele>31.735</ele>
        <time>2019-10-24T07:53:24.001Z</time>
      </trkpt>
      <trkpt lat="43.29626" lon="5.37328">
        <ele>25.291</ele>
        <time>2019-10-24T07:54:12.001Z</time>
      </trkpt>
      <trkpt lat="43.29629" lon="5.37199">
        <ele>16.293</ele>
        <time>2019-10-24T07:54:42.001Z</time>
      </trkpt>
      <trkpt lat="43.29625" lon="5.37238">
        <ele>11.623</ele>
        <time>2019-10-24T07:56:09.001Z</time>
      </trkpt>
      <trkpt lat="43.2962" lon="5.37338">
        <ele>10.863</ele>
        <time>2019-10-24T07:56:45.001Z</time>
      </trkpt>
      <trkpt lat="43.29613" lon="5.37328">
        <ele>13.117</ele>
        <time>2019-10-24T08:01:03.001Z</time>
      </trkpt>
      <trkpt lat="43.29619" lon="5.3719">
        <ele>2.965</ele>
        <time>2019-10-24T08:01:33.001Z</time>
      </trkpt>
      <trkpt lat="43.29607" lon="5.37052">
        <ele>4</ele>
        <time>2019-10-24T08:02:03.001Z</time>
      </trkpt>
      <trkpt lat="43.29598" lon="5.3694">
        <ele>2.8</ele>
        <time>2019-10-24T08:02:36.001Z</time>
      </trkpt>
      <trkpt lat="43.29599" lon="5.36851">
        <ele>4.4</ele>
        <time>2019-10-24T08:03:24.001Z</time>
      </trkpt>
      <trkpt lat="43.29577" lon="5.36681">
        <ele>0.234</ele>
        <time>2019-10-24T08:03:57.001Z</time>
      </trkpt>
      <trkpt lat="43.29548" lon="5.36518">
        <ele>5.1</ele>
        <time>2019-10-24T08:04:27.001Z</time>
      </trkpt>
      <trkpt lat="43.29532" lon="5.36336">
        <ele>9.8</ele>
        <time>2019-10-24T08:04:57.001Z</time>
      </trkpt>
      <trkpt lat="43.29649" lon="5.36268">
        <ele>7.763</ele>
        <time>2019-10-24T08:05:27.001Z</time>
      </trkpt>
      <trkpt lat="43.29759" lon="5.36308">
        <ele>5.825</ele>
        <time>2019-10-24T08:05:57.001Z</time>
      </trkpt>
      <trkpt lat="43.29826" lon="5.36343">
        <ele>3.353</ele>
        <time>2019-10-24T08:06:36.001Z</time>
      </trkpt>
      <trkpt lat="43.29828" lon="5.36343">
        <ele>3.898</ele>
        <time>2019-10-24T08:07:36.001Z</time>
      </trkpt>
      <trkpt lat="43.29914" lon="5.36361">
        <ele>7.63</ele>
        <time>2019-10-24T08:09:24.001Z</time>
      </trkpt>
      <trkpt lat="43.30061" lon="5.36409">
        <ele>10.324</ele>
        <time>2019-10-24T08:09:54.001Z</time>
      </trkpt>
      <trkpt lat="43.30203" lon="5.36444">
        <ele>14.541</ele>
        <time>2019-10-24T08:10:24.001Z</time>
      </trkpt>
      <trkpt lat="43.30316" lon="5.36481">
        <ele>23.161</ele>
        <time>2019-10-24T08:10:54.001Z</time>
      </trkpt>
      <trkpt lat="43.30391" lon="5.36506">
        <ele>23.547</ele>
        <time>2019-10-24T08:11:45.001Z</time>
      </trkpt>
      <trkpt lat="43.30499" lon="5.36529">
        <ele>22.017</ele>
        <time>2019-10-24T08:12:15.001Z</time>
      </trkpt>
      <trkpt lat="43.30643" lon="5.36553">
        <ele>34.732</ele>
        <time>2019-10-24T08:12:48.001Z</time>
      </trkpt>
      <trkpt lat="43.30763" lon="5.36596">
        <ele>48.209</ele>
        <time>2019-10-24T08:13:18.001Z</time>
      </trkpt>
      <trkpt lat="43.30837" lon="5.3663">
        <ele>38.126</ele>
        <time>2019-10-24T08:14:03.001Z</time>
      </trkpt>
      <trkpt lat="43.30962" lon="5.36708">
        <ele>23.82</ele>
        <time>2019-10-24T08:14:33.001Z</time>
      </trkpt>
      <trkpt lat="43.31099" lon="5.36713">
        <ele>35.994</ele>
        <time>2019-10-24T08:15:03.001Z</time>
      </trkpt>
      <trkpt lat="43.31234" lon="5.367">
        <ele>12.356</ele>
        <time>2019-10-24T08:15:33.001Z</time>
      </trkpt>
      <trkpt lat="43.31321" lon="5.36629">
        <ele>4.3</ele>
        <time>2019-10-24T08:16:06.001Z</time>
      </trkpt>
      <trkpt lat="43.31503" lon="5.36527">
        <ele>4</ele>
        <time>2019-10-24T08:16:39.001Z</time>
      </trkpt>
      <trkpt lat="43.31614" lon="5.3646">
        <ele>3.9</ele>
        <time>2019-10-24T08:17:09.001Z</time>
      </trkpt>
      <trkpt lat="43.31735" lon="5.36359">
        <ele>0.036</ele>
        <time>2019-10-24T08:17:39.001Z</time>
      </trkpt>
      <trkpt lat="43.31843" lon="5.36286">
        <ele>2.454</ele>
        <time>2019-10-24T08:18:09.001Z</time>
      </trkpt>
      <trkpt lat="43.32045" lon="5.36296">
        <ele>7.732</ele>
        <time>2019-10-24T08:18:39.001Z</time>
      </trkpt>
      <trkpt lat="43.32219" lon="5.36225">
        <ele>3.039</ele>
        <time>2019-10-24T08:19:09.001Z</time>
      </trkpt>
      <trkpt lat="43.32361" lon="5.36103">
        <ele>4.397</ele>
        <time>2019-10-24T08:19:42.001Z</time>
      </trkpt>
      <trkpt lat="43.32495" lon="5.35983">
        <ele>7.855</ele>
        <time>2019-10-24T08:20:12.001Z</time>
      </trkpt>
      <trkpt lat="43.32607" lon="5.35904">
        <ele>14.871</ele>
        <time>2019-10-24T08:20:42.001Z</time>
      </trkpt>
      <trkpt lat="43.32655" lon="5.35871">
        <ele>7.982</ele>
        <time>2019-10-24T08:22:00Z</time>
      </trkpt>
      <trkpt lat="43.32715" lon="5.35807">
        <ele>10.565</ele>
        <time>2019-10-24T08:24:24.001Z</time>
      </trkpt>
      <trkpt lat="43.32716" lon="5.35564">
        <ele>3.246</ele>
        <time>2019-10-24T08:24:54.001Z</time>
      </trkpt>
      <trkpt lat="43.3289" lon="5.35507">
        <ele>6.8</ele>
        <time>2019-10-24T08:25:24.001Z</time>
      </trkpt>
      <trkpt lat="43.33044" lon="5.35521">
        <ele>12.7</ele>
        <time>2019-10-24T08:25:57.001Z</time>
      </trkpt>
      <trkpt lat="43.33207" lon="5.35481">
        <ele>11.2</ele>
        <time>2019-10-24T08:26:27.001Z</time>
      </trkpt>
      <trkpt lat="43.33347" lon="5.35462">
        <ele>13.007</ele>
        <time>2019-10-24T08:26:57.001Z</time>
      </trkpt>
      <trkpt lat="43.33494" lon="5.35466">
        <ele>13.847</ele>
        <time>2019-10-24T08:27:27.001Z</time>
      </trkpt>
      <trkpt lat="43.33592" lon="5.35422">
        <ele>12.551</ele>
        <time>2019-10-24T08:27:57.001Z</time>
      </trkpt>
      <trkpt lat="43.33651" lon="5.3526">
        <ele>6.749</ele>
        <time>2019-10-24T08:28:27.001Z</time>
      </trkpt>
      <trkpt lat="43.33709" lon="5.35055">
        <ele>0.249</ele>
        <time>2019-10-24T08:29:00Z</time>
      </trkpt>
      <trkpt lat="43.33829" lon="5.34914">
        <ele>10.4</ele>
        <time>2019-10-24T08:29:30.001Z</time>
      </trkpt>
      <trkpt lat="43.33978" lon="5.34887">
        <ele>1.823</ele>
        <time>2019-10-24T08:30:00Z</time>
      </trkpt>
      <trkpt lat="43.33987" lon="5.3489">
        <ele>3.475</ele>
        <time>2019-10-24T08:33:09.001Z</time>
      </trkpt>
      <trkpt lat="43.34098" lon="5.34869">
        <ele>2.667</ele>
        <time>2019-10-24T08:33:39.001Z</time>
      </trkpt>
      <trkpt lat="43.34265" lon="5.34808">
        <ele>8.7</ele>
        <time>2019-10-24T08:34:09.001Z</time>
      </trkpt>
      <trkpt lat="43.34451" lon="5.34702">
        <ele>15.3</ele>
        <time>2019-10-24T08:34:39.001Z</time>
      </trkpt>
      <trkpt lat="43.34599" lon="5.34604">
        <ele>13.7</ele>
        <time>2019-10-24T08:35:12.001Z</time>
      </trkpt>
      <trkpt lat="43.34725" lon="5.34454">
        <ele>3.687</ele>
        <time>2019-10-24T08:35:42.001Z</time>
      </trkpt>
      <trkpt lat="43.34863" lon="5.34329">
        <ele>1.518</ele>
        <time>2019-10-24T08:36:12.001Z</time>
      </trkpt>
      <trkpt lat="43.3501" lon="5.34201">
        <ele>5.258</ele>
        <time>2019-10-24T08:36:42.001Z</time>
      </trkpt>
      <trkpt lat="43.3513" lon="5.34022">
        <ele>6.067</ele>
        <time>2019-10-24T08:37:12.001Z</time>
      </trkpt>
      <trkpt lat="43.35227" lon="5.33856">
        <ele>9.449</ele>
        <time>2019-10-24T08:37:42.001Z</time>
      </trkpt>
      <trkpt lat="43.35328" lon="5.33697">
        <ele>6.428</ele>
        <time>2019-10-24T08:38:15.001Z</time>
      </trkpt>
      <trkpt lat="43.35309" lon="5.33681">
        <ele>6.764</ele>
        <time>2019-10-24T08:58:03.001Z</time>
      </trkpt>
      <trkpt lat="43.35348" lon="5.33692">
        <ele>2.541</ele>
        <time>2019-10-24T08:58:33.001Z</time>
      </trkpt>
      <trkpt lat="43.35444" lon="5.33501">
        <ele>5.773</ele>
        <time>2019-10-24T08:59:03.001Z</time>
      </trkpt>
      <trkpt lat="43.35435" lon="5.33305">
        <ele>12.657</ele>
        <time>2019-10-24T08:59:33.001Z</time>
      </trkpt>
      <trkpt lat="43.35375" lon="5.33077">
        <ele>3.197</ele>
        <time>2019-10-24T09:00:03.001Z</time>
      </trkpt>
      <trkpt lat="43.35392" lon="5.32848">
        <ele>3.202</ele>
        <time>2019-10-24T09:00:33.001Z</time>
      </trkpt>
      <trkpt lat="43.35575" lon="5.32769">
        <ele>1.434</ele>
        <time>2019-10-24T09:01:06.001Z</time>
      </trkpt>
      <trkpt lat="43.35692" lon="5.32737">
        <ele>9.581</ele>
        <time>2019-10-24T09:01:36.001Z</time>
      </trkpt>
      <trkpt lat="43.35766" lon="5.327">
        <ele>9.653</ele>
        <time>2019-10-24T09:02:06.001Z</time>
      </trkpt>
      <trkpt lat="43.35845" lon="5.32628">
        <ele>12.534</ele>
        <time>2019-10-24T09:02:36.001Z</time>
      </trkpt>
      <trkpt lat="43.35907" lon="5.3238">
        <ele>9.368</ele>
        <time>2019-10-24T09:03:06.001Z</time>
      </trkpt>
      <trkpt lat="43.35786" lon="5.32116">
        <ele>5.057</ele>
        <time>2019-10-24T09:03:36.001Z</time>
      </trkpt>
      <trkpt lat="43.35818" lon="5.31898">
        <ele>4.9</ele>
        <time>2019-10-24T09:04:09.001Z</time>
      </trkpt>
      <trkpt lat="43.35942" lon="5.31743">
        <ele>7.7</ele>
        <time>2019-10-24T09:04:39.001Z</time>
      </trkpt>
      <trkpt lat="43.35985" lon="5.31568">
        <ele>4.742</ele>
        <time>2019-10-24T09:05:09.001Z</time>
      </trkpt>
      <trkpt lat="43.36051" lon="5.31385">
        <ele>4.717</ele>
        <time>2019-10-24T09:05:39.001Z</time>
      </trkpt>
      <trkpt lat="43.36095" lon="5.31264">
        <ele>3.972</ele>
        <time>2019-10-24T09:06:21.001Z</time>
      </trkpt>
      <trkpt lat="43.36193" lon="5.311">
        <ele>7.687</ele>
        <time>2019-10-24T09:06:51.001Z</time>
      </trkpt>
      <trkpt lat="43.36204" lon="5.30905">
        <ele>7.715</ele>
        <time>2019-10-24T09:07:21.001Z</time>
      </trkpt>
      <trkpt lat="43.36165" lon="5.30677">
        <ele>13.475</ele>
        <time>2019-10-24T09:07:54.001Z</time>
      </trkpt>
      <trkpt lat="43.36181" lon="5.30457">
        <ele>4.913</ele>
        <time>2019-10-24T09:08:24.001Z</time>
      </trkpt>
      <trkpt lat="43.36188" lon="5.30255">
        <ele>4.935</ele>
        <time>2019-10-24T09:08:54.001Z</time>
      </trkpt>
      <trkpt lat="43.3612" lon="5.30056">
        <ele>11.116</ele>
        <time>2019-10-24T09:09:24.001Z</time>
      </trkpt>
      <trkpt lat="43.36043" lon="5.29858">
        <ele>12.318</ele>
        <time>2019-10-24T09:09:54.001Z</time>
      </trkpt>
      <trkpt lat="43.36046" lon="5.29652">
        <ele>8.709</ele>
        <time>2019-10-24T09:10:24.001Z</time>
      </trkpt>
      <trkpt lat="43.36034" lon="5.29478">
        <ele>15.496</ele>
        <time>2019-10-24T09:10:57.001Z</time>
      </trkpt>
      <trkpt lat="43.35975" lon="5.29353">
        <ele>15.323</ele>
        <time>2019-10-24T09:11:27.001Z</time>
      </trkpt>
      <trkpt lat="43.35888" lon="5.2923">
        <ele>10.054</ele>
        <time>2019-10-24T09:11:57.001Z</time>
      </trkpt>
      <trkpt lat="43.35846" lon="5.29121">
        <ele>18.843</ele>
        <time>2019-10-24T09:12:27.001Z</time>
      </trkpt>
      <trkpt lat="43.35814" lon="5.29022">
        <ele>30.183</ele>
        <time>2019-10-24T09:12:57.001Z</time>
      </trkpt>
      <trkpt lat="43.35796" lon="5.28952">
        <ele>31.111</ele>
        <time>2019-10-24T09:18:22.001Z</time>
      </trkpt>
      <trkpt lat="43.35815" lon="5.28863">
        <ele>37.3</ele>
        <time>2019-10-24T09:18:55.001Z</time>
      </trkpt>
      <trkpt lat="43.35789" lon="5.28739">
        <ele>31.619</ele>
        <time>2019-10-24T09:19:28.001Z</time>
      </trkpt>
      <trkpt lat="43.3572" lon="5.28667">
        <ele>35.791</ele>
        <time>2019-10-24T09:19:58.001Z</time>
      </trkpt>
      <trkpt lat="43.35618" lon="5.28585">
        <ele>39.39</ele>
        <time>2019-10-24T09:20:28.001Z</time>
      </trkpt>
      <trkpt lat="43.35501" lon="5.28412">
        <ele>37.913</ele>
        <time>2019-10-24T09:20:58.001Z</time>
      </trkpt>
      <trkpt lat="43.35429" lon="5.28186">
        <ele>35.915</ele>
        <time>2019-10-24T09:21:28.001Z</time>
      </trkpt>
      <trkpt lat="43.35706" lon="5.27779">
        <ele>68.06</ele>
        <time>2019-10-24T09:23:21.001Z</time>
      </trkpt>
      <trkpt lat="43.35766" lon="5.27686">
        <ele>63.163</ele>
        <time>2019-10-24T09:23:54.001Z</time>
      </trkpt>
      <trkpt lat="43.35823" lon="5.276">
        <ele>59.418</ele>
        <time>2019-10-24T09:24:24.001Z</time>
      </trkpt>
      <trkpt lat="43.35871" lon="5.27516">
        <ele>71.461</ele>
        <time>2019-10-24T09:24:54.001Z</time>
      </trkpt>
      <trkpt lat="43.35915" lon="5.27436">
        <ele>75.126</ele>
        <time>2019-10-24T09:25:24.001Z</time>
      </trkpt>
      <trkpt lat="43.35946" lon="5.2734">
        <ele>80.963</ele>
        <time>2019-10-24T09:25:54.001Z</time>
      </trkpt>
      <trkpt lat="43.35996" lon="5.2726">
        <ele>78.318</ele>
        <time>2019-10-24T09:26:24.001Z</time>
      </trkpt>
      <trkpt lat="43.36056" lon="5.27202">
        <ele>78.273</ele>
        <time>2019-10-24T09:26:54.001Z</time>
      </trkpt>
      <trkpt lat="43.36121" lon="5.27136">
        <ele>81.074</ele>
        <time>2019-10-24T09:27:27.001Z</time>
      </trkpt>
      <trkpt lat="43.36195" lon="5.2709">
        <ele>79.45</ele>
        <time>2019-10-24T09:27:57.001Z</time>
      </trkpt>
      <trkpt lat="43.36259" lon="5.27033">
        <ele>83.924</ele>
        <time>2019-10-24T09:28:27.001Z</time>
      </trkpt>
      <trkpt lat="43.36312" lon="5.26947">
        <ele>92.41</ele>
        <time>2019-10-24T09:28:57.001Z</time>
      </trkpt>
      <trkpt lat="43.36345" lon="5.26844">
        <ele>98.62</ele>
        <time>2019-10-24T09:29:27.001Z</time>
      </trkpt>
      <trkpt lat="43.36368" lon="5.26731">
        <ele>108.687</ele>
        <time>2019-10-24T09:29:57.001Z</time>
      </trkpt>
      <trkpt lat="43.36392" lon="5.26604">
        <ele>114.093</ele>
        <time>2019-10-24T09:30:30.001Z</time>
      </trkpt>
      <trkpt lat="43.36418" lon="5.26499">
        <ele>111.666</ele>
        <time>2019-10-24T09:31:00Z</time>
      </trkpt>
      <trkpt lat="43.36457" lon="5.26411">
        <ele>119.421</ele>
        <time>2019-10-24T09:31:30.001Z</time>
      </trkpt>
      <trkpt lat="43.36525" lon="5.26378">
        <ele>122.203</ele>
        <time>2019-10-24T09:32:00Z</time>
      </trkpt>
      <trkpt lat="43.36611" lon="5.26351">
        <ele>109.043</ele>
        <time>2019-10-24T09:32:30.001Z</time>
      </trkpt>
      <trkpt lat="43.36689" lon="5.26321">
        <ele>111.996</ele>
        <time>2019-10-24T09:33:00Z</time>
      </trkpt>
      <trkpt lat="43.36757" lon="5.26256">
        <ele>115.514</ele>
        <time>2019-10-24T09:33:30.001Z</time>
      </trkpt>
      <trkpt lat="43.36805" lon="5.26152">
        <ele>124.148</ele>
        <time>2019-10-24T09:34:03.001Z</time>
      </trkpt>
      <trkpt lat="43.36844" lon="5.26051">
        <ele>132.332</ele>
        <time>2019-10-24T09:34:33.001Z</time>
      </trkpt>
      <trkpt lat="43.36897" lon="5.25965">
        <ele>133.102</ele>
        <time>2019-10-24T09:35:03.001Z</time>
      </trkpt>
      <trkpt lat="43.36938" lon="5.2588">
        <ele>128.372</ele>
        <time>2019-10-24T09:35:33.001Z</time>
      </trkpt>
      <trkpt lat="43.36948" lon="5.25766">
        <ele>125.083</ele>
        <time>2019-10-24T09:36:03.001Z</time>
      </trkpt>
      <trkpt lat="43.36925" lon="5.25639">
        <ele>126.986</ele>
        <time>2019-10-24T09:36:33.001Z</time>
      </trkpt>
      <trkpt lat="43.36898" lon="5.25513">
        <ele>129.374</ele>
        <time>2019-10-24T09:37:06.001Z</time>
      </trkpt>
      <trkpt lat="43.36874" lon="5.25403">
        <ele>131.966</ele>
        <time>2019-10-24T09:37:36.001Z</time>
      </trkpt>
      <trkpt lat="43.3685" lon="5.25289">
        <ele>135.198</ele>
        <time>2019-10-24T09:38:06.001Z</time>
      </trkpt>
      <trkpt lat="43.36827" lon="5.25175">
        <ele>136.819</ele>
        <time>2019-10-24T09:38:36.001Z</time>
      </trkpt>
      <trkpt lat="43.36804" lon="5.2506">
        <ele>139.307</ele>
        <time>2019-10-24T09:39:06.001Z</time>
      </trkpt>
      <trkpt lat="43.36782" lon="5.24955">
        <ele>143.137</ele>
        <time>2019-10-24T09:39:36.001Z</time>
      </trkpt>
      <trkpt lat="43.36759" lon="5.24858">
        <ele>146.985</ele>
        <time>2019-10-24T09:40:06.001Z</time>
      </trkpt>
      <trkpt lat="43.36738" lon="5.24748">
        <ele>151.764</ele>
        <time>2019-10-24T09:40:39.001Z</time>
      </trkpt>
      <trkpt lat="43.36718" lon="5.24648">
        <ele>153.593</ele>
        <time>2019-10-24T09:41:09.001Z</time>
      </trkpt>
      <trkpt lat="43.36697" lon="5.24549">
        <ele>157.128</ele>
        <time>2019-10-24T09:41:39.001Z</time>
      </trkpt>
      <trkpt lat="43.36674" lon="5.24452">
        <ele>160.625</ele>
        <time>2019-10-24T09:42:09.001Z</time>
      </trkpt>
      <trkpt lat="43.36656" lon="5.24351">
        <ele>164.741</ele>
        <time>2019-10-24T09:42:39.001Z</time>
      </trkpt>
      <trkpt lat="43.36635" lon="5.24251">
        <ele>165.766</ele>
        <time>2019-10-24T09:43:09.001Z</time>
      </trkpt>
      <trkpt lat="43.36612" lon="5.24099">
        <ele>166.619</ele>
        <time>2019-10-24T09:43:42.001Z</time>
      </trkpt>
      <trkpt lat="43.36622" lon="5.23851">
        <ele>164.954</ele>
        <time>2019-10-24T09:44:12.001Z</time>
      </trkpt>
      <trkpt lat="43.36647" lon="5.23527">
        <ele>155.497</ele>
        <time>2019-10-24T09:44:42.001Z</time>
      </trkpt>
      <trkpt lat="43.36952" lon="5.2334">
        <ele>139.891</ele>
        <time>2019-10-24T09:45:12.001Z</time>
      </trkpt>
      <trkpt lat="43.37273" lon="5.22959">
        <ele>113.811</ele>
        <time>2019-10-24T09:45:42.001Z</time>
      </trkpt>
      <trkpt lat="43.37671" lon="5.22671">
        <ele>82.458</ele>
        <time>2019-10-24T09:46:12.001Z</time>
      </trkpt>
      <trkpt lat="43.37962" lon="5.22385">
        <ele>71.484</ele>
        <time>2019-10-24T09:46:42.001Z</time>
      </trkpt>
      <trkpt lat="43.38222" lon="5.22127">
        <ele>61.647</ele>
        <time>2019-10-24T09:47:15.001Z</time>
      </trkpt>
      <trkpt lat="43.38504" lon="5.21853">
        <ele>47.039</ele>
        <time>2019-10-24T09:47:45.001Z</time>
      </trkpt>
      <trkpt lat="43.38652" lon="5.2163">
        <ele>39.897</ele>
        <time>2019-10-24T09:48:15.001Z</time>
      </trkpt>
      <trkpt lat="43.3881" lon="5.21364">
        <ele>32.237</ele>
        <time>2019-10-24T09:48:45.001Z</time>
      </trkpt>
      <trkpt lat="43.38964" lon="5.21095">
        <ele>27.185</ele>
        <time>2019-10-24T09:49:15.001Z</time>
      </trkpt>
      <trkpt lat="43.39098" lon="5.20865">
        <ele>23.48</ele>
        <time>2019-10-24T09:49:45.001Z</time>
      </trkpt>
      <trkpt lat="43.3925" lon="5.20581">
        <ele>18.638</ele>
        <time>2019-10-24T09:50:18.001Z</time>
      </trkpt>
      <trkpt lat="43.39335" lon="5.20321">
        <ele>17.044</ele>
        <time>2019-10-24T09:50:48.001Z</time>
      </trkpt>
      <trkpt lat="43.39376" lon="5.20093">
        <ele>16.728</ele>
        <time>2019-10-24T09:51:18.001Z</time>
      </trkpt>
      <trkpt lat="43.39381" lon="5.19804">
        <ele>14.212</ele>
        <time>2019-10-24T09:51:48.001Z</time>
      </trkpt>
      <trkpt lat="43.39375" lon="5.19491">
        <ele>7.815</ele>
        <time>2019-10-24T09:52:18.001Z</time>
      </trkpt>
      <trkpt lat="43.39338" lon="5.19243">
        <ele>7.805</ele>
        <time>2019-10-24T09:52:48.001Z</time>
      </trkpt>
      <trkpt lat="43.39328" lon="5.1898">
        <ele>9.442</ele>
        <time>2019-10-24T09:53:18.001Z</time>
      </trkpt>
      <trkpt lat="43.39297" lon="5.18696">
        <ele>11.838</ele>
        <time>2019-10-24T09:53:51.001Z</time>
      </trkpt>
      <trkpt lat="43.39293" lon="5.18447">
        <ele>13.743</ele>
        <time>2019-10-24T09:54:21.001Z</time>
      </trkpt>
      <trkpt lat="43.39273" lon="5.18207">
        <ele>13.737</ele>
        <time>2019-10-24T09:54:51.001Z</time>
      </trkpt>
      <trkpt lat="43.39234" lon="5.17967">
        <ele>12.541</ele>
        <time>2019-10-24T09:55:21.001Z</time>
      </trkpt>
      <trkpt lat="43.39158" lon="5.17739">
        <ele>13.15</ele>
        <time>2019-10-24T09:55:51.001Z</time>
      </trkpt>
      <trkpt lat="43.39091" lon="5.17497">
        <ele>13.295</ele>
        <time>2019-10-24T09:56:21.001Z</time>
      </trkpt>
      <trkpt lat="43.39076" lon="5.17212">
        <ele>11.681</ele>
        <time>2019-10-24T09:56:54.001Z</time>
      </trkpt>
      <trkpt lat="43.39035" lon="5.16976">
        <ele>10.761</ele>
        <time>2019-10-24T09:57:24.001Z</time>
      </trkpt>
      <trkpt lat="43.39009" lon="5.16776">
        <ele>16.235</ele>
        <time>2019-10-24T09:57:54.001Z</time>
      </trkpt>
      <trkpt lat="43.39013" lon="5.16601">
        <ele>21.616</ele>
        <time>2019-10-24T09:58:24.001Z</time>
      </trkpt>
      <trkpt lat="43.39009" lon="5.16412">
        <ele>17.031</ele>
        <time>2019-10-24T09:58:54.001Z</time>
      </trkpt>
      <trkpt lat="43.39045" lon="5.16234">
        <ele>18.44</ele>
        <time>2019-10-24T09:59:24.001Z</time>
      </trkpt>
      <trkpt lat="43.39105" lon="5.16029">
        <ele>18.55</ele>
        <time>2019-10-24T09:59:54.001Z</time>
      </trkpt>
      <trkpt lat="43.39173" lon="5.15774">
        <ele>15.94</ele>
        <time>2019-10-24T10:00:27.001Z</time>
      </trkpt>
      <trkpt lat="43.39231" lon="5.15571">
        <ele>15.731</ele>
        <time>2019-10-24T10:00:57.001Z</time>
      </trkpt>
      <trkpt lat="43.39286" lon="5.15377">
        <ele>15.486</ele>
        <time>2019-10-24T10:01:27.001Z</time>
      </trkpt>
      <trkpt lat="43.39294" lon="5.15185">
        <ele>19.599</ele>
        <time>2019-10-24T10:01:57.001Z</time>
      </trkpt>
      <trkpt lat="43.3931" lon="5.15006">
        <ele>17.045</ele>
        <time>2019-10-24T10:02:27.001Z</time>
      </trkpt>
      <trkpt lat="43.39312" lon="5.15013">
        <ele>18.049</ele>
        <time>2019-10-24T10:05:33.001Z</time>
      </trkpt>
      <trkpt lat="43.39311" lon="5.15008">
        <ele>19.777</ele>
        <time>2019-10-24T10:08:30.001Z</time>
      </trkpt>
      <trkpt lat="43.39325" lon="5.14884">
        <ele>20.881</ele>
        <time>2019-10-24T10:14:06.001Z</time>
      </trkpt>
      <trkpt lat="43.39342" lon="5.14661">
        <ele>19.018</ele>
        <time>2019-10-24T10:14:36.001Z</time>
      </trkpt>
      <trkpt lat="43.39351" lon="5.14436">
        <ele>19.054</ele>
        <time>2019-10-24T10:15:06.001Z</time>
      </trkpt>
      <trkpt lat="43.39363" lon="5.14204">
        <ele>18.691</ele>
        <time>2019-10-24T10:15:36.001Z</time>
      </trkpt>
      <trkpt lat="43.39392" lon="5.14006">
        <ele>19.129</ele>
        <time>2019-10-24T10:16:06.001Z</time>
      </trkpt>
      <trkpt lat="43.39388" lon="5.13984">
        <ele>21.311</ele>
        <time>2019-10-24T10:25:27.001Z</time>
      </trkpt>
      <trkpt lat="43.39384" lon="5.13984">
        <ele>24.83</ele>
        <time>2019-10-24T10:34:06.001Z</time>
      </trkpt>
      <trkpt lat="43.39385" lon="5.13981">
        <ele>24.48</ele>
        <time>2019-10-24T10:36:54.001Z</time>
      </trkpt>
      <trkpt lat="43.39383" lon="5.13988">
        <ele>21.489</ele>
        <time>2019-10-24T10:38:21.001Z</time>
      </trkpt>
      <trkpt lat="43.39382" lon="5.13987">
        <ele>24.51</ele>
        <time>2019-10-24T10:45:33.001Z</time>
      </trkpt>
      <trkpt lat="43.39378" lon="5.13992">
        <ele>22.513</ele>
        <time>2019-10-24T10:53:09.001Z</time>
      </trkpt>
      <trkpt lat="43.39387" lon="5.13945">
        <ele>21.79</ele>
        <time>2019-10-24T10:53:42.001Z</time>
      </trkpt>
      <trkpt lat="43.39426" lon="5.13766">
        <ele>20.765</ele>
        <time>2019-10-24T10:54:15.001Z</time>
      </trkpt>
      <trkpt lat="43.39441" lon="5.136">
        <ele>19.775</ele>
        <time>2019-10-24T10:54:45.001Z</time>
      </trkpt>
      <trkpt lat="43.39442" lon="5.1342">
        <ele>20.242</ele>
        <time>2019-10-24T10:55:15.001Z</time>
      </trkpt>
      <trkpt lat="43.39441" lon="5.13239">
        <ele>23.887</ele>
        <time>2019-10-24T10:55:45.001Z</time>
      </trkpt>
      <trkpt lat="43.39451" lon="5.13029">
        <ele>19.766</ele>
        <time>2019-10-24T10:56:15.001Z</time>
      </trkpt>
      <trkpt lat="43.39476" lon="5.12821">
        <ele>19.551</ele>
        <time>2019-10-24T10:56:45.001Z</time>
      </trkpt>
      <trkpt lat="43.3946" lon="5.12647">
        <ele>23.101</ele>
        <time>2019-10-24T10:57:15.001Z</time>
      </trkpt>
      <trkpt lat="43.39444" lon="5.12499">
        <ele>28.921</ele>
        <time>2019-10-24T10:57:48.001Z</time>
      </trkpt>
      <trkpt lat="43.39462" lon="5.12358">
        <ele>32.422</ele>
        <time>2019-10-24T10:58:18.001Z</time>
      </trkpt>
      <trkpt lat="43.39538" lon="5.12136">
        <ele>35.126</ele>
        <time>2019-10-24T10:58:48.001Z</time>
      </trkpt>
      <trkpt lat="43.39614" lon="5.11849">
        <ele>23.784</ele>
        <time>2019-10-24T10:59:18.001Z</time>
      </trkpt>
      <trkpt lat="43.39677" lon="5.11601">
        <ele>19.021</ele>
        <time>2019-10-24T10:59:48.001Z</time>
      </trkpt>
      <trkpt lat="43.39727" lon="5.11399">
        <ele>20.508</ele>
        <time>2019-10-24T11:00:18.001Z</time>
      </trkpt>
      <trkpt lat="43.39773" lon="5.11143">
        <ele>20.527</ele>
        <time>2019-10-24T11:00:51.001Z</time>
      </trkpt>
      <trkpt lat="43.39824" lon="5.10898">
        <ele>17.581</ele>
        <time>2019-10-24T11:01:21.001Z</time>
      </trkpt>
      <trkpt lat="43.39882" lon="5.10632">
        <ele>20.376</ele>
        <time>2019-10-24T11:01:51.001Z</time>
      </trkpt>
      <trkpt lat="43.39959" lon="5.1039">
        <ele>18.725</ele>
        <time>2019-10-24T11:02:21.001Z</time>
      </trkpt>
      <trkpt lat="43.40017" lon="5.10149">
        <ele>9.968</ele>
        <time>2019-10-24T11:02:51.001Z</time>
      </trkpt>
      <trkpt lat="43.39997" lon="5.09909">
        <ele>11.391</ele>
        <time>2019-10-24T11:03:21.001Z</time>
      </trkpt>
      <trkpt lat="43.39974" lon="5.097">
        <ele>16.288</ele>
        <time>2019-10-24T11:03:51.001Z</time>
      </trkpt>
      <trkpt lat="43.3994" lon="5.09433">
        <ele>13.091</ele>
        <time>2019-10-24T11:04:24.001Z</time>
      </trkpt>
      <trkpt lat="43.3989" lon="5.09232">
        <ele>12.403</ele>
        <time>2019-10-24T11:04:54.001Z</time>
      </trkpt>
      <trkpt lat="43.39852" lon="5.09089">
        <ele>19.716</ele>
        <time>2019-10-24T11:05:24.001Z</time>
      </trkpt>
      <trkpt lat="43.39832" lon="5.08904">
        <ele>23.316</ele>
        <time>2019-10-24T11:05:54.001Z</time>
      </trkpt>
      <trkpt lat="43.39818" lon="5.08752">
        <ele>26.313</ele>
        <time>2019-10-24T11:06:24.001Z</time>
      </trkpt>
      <trkpt lat="43.39782" lon="5.08602">
        <ele>26.85</ele>
        <time>2019-10-24T11:06:54.001Z</time>
      </trkpt>
      <trkpt lat="43.39793" lon="5.08401">
        <ele>27.907</ele>
        <time>2019-10-24T11:07:27.001Z</time>
      </trkpt>
      <trkpt lat="43.39778" lon="5.08242">
        <ele>25.42</ele>
        <time>2019-10-24T11:07:57.001Z</time>
      </trkpt>
      <trkpt lat="43.39767" lon="5.08043">
        <ele>26.069</ele>
        <time>2019-10-24T11:08:27.001Z</time>
      </trkpt>
      <trkpt lat="43.39766" lon="5.07839">
        <ele>27.251</ele>
        <time>2019-10-24T11:08:57.001Z</time>
      </trkpt>
      <trkpt lat="43.39779" lon="5.07665">
        <ele>30.607</ele>
        <time>2019-10-24T11:09:27.001Z</time>
      </trkpt>
      <trkpt lat="43.39763" lon="5.07479">
        <ele>28.102</ele>
        <time>2019-10-24T11:09:57.001Z</time>
      </trkpt>
      <trkpt lat="43.39773" lon="5.07176">
        <ele>26.215</ele>
        <time>2019-10-24T11:10:27.001Z</time>
      </trkpt>
      <trkpt lat="43.39846" lon="5.07085">
        <ele>21.392</ele>
        <time>2019-10-24T11:11:15.001Z</time>
      </trkpt>
      <trkpt lat="43.39869" lon="5.06884">
        <ele>20.006</ele>
        <time>2019-10-24T11:11:45.001Z</time>
      </trkpt>
      <trkpt lat="43.39919" lon="5.0663">
        <ele>16.783</ele>
        <time>2019-10-24T11:12:15.001Z</time>
      </trkpt>
      <trkpt lat="43.39935" lon="5.06395">
        <ele>17.718</ele>
        <time>2019-10-24T11:12:45.001Z</time>
      </trkpt>
      <trkpt lat="43.39995" lon="5.06167">
        <ele>14.173</ele>
        <time>2019-10-24T11:13:15.001Z</time>
      </trkpt>
      <trkpt lat="43.40148" lon="5.05934">
        <ele>9.345</ele>
        <time>2019-10-24T11:13:45.001Z</time>
      </trkpt>
      <trkpt lat="43.40315" lon="5.05733">
        <ele>4.788</ele>
        <time>2019-10-24T11:14:15.001Z</time>
      </trkpt>
      <trkpt lat="43.40441" lon="5.0569">
        <ele>8.857</ele>
        <time>2019-10-24T11:14:48.001Z</time>
      </trkpt>
      <trkpt lat="43.40599" lon="5.05615">
        <ele>6.824</ele>
        <time>2019-10-24T11:15:18.001Z</time>
      </trkpt>
      <trkpt lat="43.40746" lon="5.05651">
        <ele>5.867</ele>
        <time>2019-10-24T11:15:48.001Z</time>
      </trkpt>
      <trkpt lat="43.40874" lon="5.05612">
        <ele>9.436</ele>
        <time>2019-10-24T11:16:18.001Z</time>
      </trkpt>
      <trkpt lat="43.40859" lon="5.05444">
        <ele>14.919</ele>
        <time>2019-10-24T11:16:48.001Z</time>
      </trkpt>
      <trkpt lat="43.40798" lon="5.05273">
        <ele>16.29</ele>
        <time>2019-10-24T11:17:18.001Z</time>
      </trkpt>
      <trkpt lat="43.40808" lon="5.05057">
        <ele>12.888</ele>
        <time>2019-10-24T11:17:51.001Z</time>
      </trkpt>
      <trkpt lat="43.40764" lon="5.04845">
        <ele>10.408</ele>
        <time>2019-10-24T11:18:21.001Z</time>
      </trkpt>
      <trkpt lat="43.40721" lon="5.04666">
        <ele>4.525</ele>
        <time>2019-10-24T11:18:51.001Z</time>
      </trkpt>
      <trkpt lat="43.40605" lon="5.0454">
        <ele>6.036</ele>
        <time>2019-10-24T11:19:21.001Z</time>
      </trkpt>
      <trkpt lat="43.40539" lon="5.04354">
        <ele>6.548</ele>
        <time>2019-10-24T11:19:51.001Z</time>
      </trkpt>
      <trkpt lat="43.40431" lon="5.04224">
        <ele>8.52</ele>
        <time>2019-10-24T11:20:21.001Z</time>
      </trkpt>
      <trkpt lat="43.40353" lon="5.04097">
        <ele>10.608</ele>
        <time>2019-10-24T11:20:51.001Z</time>
      </trkpt>
      <trkpt lat="43.40294" lon="5.03855">
        <ele>1.51</ele>
        <time>2019-10-24T11:21:24.001Z</time>
      </trkpt>
      <trkpt lat="43.40341" lon="5.03664">
        <ele>5.926</ele>
        <time>2019-10-24T11:21:54.001Z</time>
      </trkpt>
      <trkpt lat="43.40387" lon="5.03487">
        <ele>5.436</ele>
        <time>2019-10-24T11:22:24.001Z</time>
      </trkpt>
      <trkpt lat="43.40392" lon="5.03267">
        <ele>5.074</ele>
        <time>2019-10-24T11:22:54.001Z</time>
      </trkpt>
      <trkpt lat="43.40389" lon="5.0308">
        <ele>4.753</ele>
        <time>2019-10-24T11:23:24.001Z</time>
      </trkpt>
      <trkpt lat="43.40394" lon="5.02897">
        <ele>5.786</ele>
        <time>2019-10-24T11:23:54.001Z</time>
      </trkpt>
      <trkpt lat="43.40359" lon="5.02697">
        <ele>5.065</ele>
        <time>2019-10-24T11:24:27.001Z</time>
      </trkpt>
      <trkpt lat="43.40337" lon="5.02472">
        <ele>2.913</ele>
        <time>2019-10-24T11:24:57.001Z</time>
      </trkpt>
      <trkpt lat="43.40432" lon="5.02366">
        <ele>0.813</ele>
        <time>2019-10-24T11:25:27.001Z</time>
      </trkpt>
      <trkpt lat="43.40472" lon="5.02137">
        <ele>0.46</ele>
        <time>2019-10-24T11:25:57.001Z</time>
      </trkpt>
      <trkpt lat="43.40474" lon="5.01903">
        <ele>1</ele>
        <time>2019-10-24T11:26:27.001Z</time>
      </trkpt>
      <trkpt lat="43.40483" lon="5.01701">
        <ele>1.626</ele>
        <time>2019-10-24T11:26:57.001Z</time>
      </trkpt>
      <trkpt lat="43.40488" lon="5.01498">
        <ele>4.303</ele>
        <time>2019-10-24T11:27:27.001Z</time>
      </trkpt>
      <trkpt lat="43.40496" lon="5.01261">
        <ele>2.61</ele>
        <time>2019-10-24T11:28:00Z</time>
      </trkpt>
      <trkpt lat="43.40505" lon="5.01039">
        <ele>2.868</ele>
        <time>2019-10-24T11:28:30.001Z</time>
      </trkpt>
      <trkpt lat="43.40509" lon="5.00811">
        <ele>7.999</ele>
        <time>2019-10-24T11:29:00Z</time>
      </trkpt>
      <trkpt lat="43.40553" lon="5.00591">
        <ele>7.569</ele>
        <time>2019-10-24T11:29:30.001Z</time>
      </trkpt>
      <trkpt lat="43.40657" lon="5.00419">
        <ele>3.25</ele>
        <time>2019-10-24T11:30:00Z</time>
      </trkpt>
      <trkpt lat="43.40824" lon="5.00342">
        <ele>1.376</ele>
        <time>2019-10-24T11:30:30.001Z</time>
      </trkpt>
      <trkpt lat="43.40876" lon="5.00163">
        <ele>7.805</ele>
        <time>2019-10-24T11:31:03.001Z</time>
      </trkpt>
      <trkpt lat="43.40892" lon="4.99992">
        <ele>9</ele>
        <time>2019-10-24T11:31:33.001Z</time>
      </trkpt>
      <trkpt lat="43.4086" lon="4.99853">
        <ele>10.29</ele>
        <time>2019-10-24T11:32:03.001Z</time>
      </trkpt>
      <trkpt lat="43.40815" lon="4.99707">
        <ele>15.549</ele>
        <time>2019-10-24T11:32:33.001Z</time>
      </trkpt>
      <trkpt lat="43.40736" lon="4.9958">
        <ele>14.455</ele>
        <time>2019-10-24T11:33:03.001Z</time>
      </trkpt>
      <trkpt lat="43.40671" lon="4.9938">
        <ele>13.077</ele>
        <time>2019-10-24T11:33:33.001Z</time>
      </trkpt>
      <trkpt lat="43.40664" lon="4.99075">
        <ele>8.213</ele>
        <time>2019-10-24T11:34:03.001Z</time>
      </trkpt>
      <trkpt lat="43.40679" lon="4.98771">
        <ele>3.608</ele>
        <time>2019-10-24T11:34:36.001Z</time>
      </trkpt>
      <trkpt lat="43.40735" lon="4.98625">
        <ele>6.03</ele>
        <time>2019-10-24T11:35:06.001Z</time>
      </trkpt>
      <trkpt lat="43.40812" lon="4.98626">
        <ele>18.547</ele>
        <time>2019-10-24T11:35:36.001Z</time>
      </trkpt>
      <trkpt lat="43.4088" lon="4.98633">
        <ele>33.866</ele>
        <time>2019-10-24T11:36:06.001Z</time>
      </trkpt>
      <trkpt lat="43.40986" lon="4.98623">
        <ele>44.156</ele>
        <time>2019-10-24T11:36:36.001Z</time>
      </trkpt>
      <trkpt lat="43.41073" lon="4.98534">
        <ele>34.876</ele>
        <time>2019-10-24T11:37:06.001Z</time>
      </trkpt>
      <trkpt lat="43.41105" lon="4.98389">
        <ele>37.458</ele>
        <time>2019-10-24T11:37:39.001Z</time>
      </trkpt>
      <trkpt lat="43.41145" lon="4.9827">
        <ele>31.054</ele>
        <time>2019-10-24T11:38:09.001Z</time>
      </trkpt>
      <trkpt lat="43.41241" lon="4.98144">
        <ele>21.966</ele>
        <time>2019-10-24T11:38:39.001Z</time>
      </trkpt>
      <trkpt lat="43.41339" lon="4.97864">
        <ele>18.562</ele>
        <time>2019-10-24T11:39:09.001Z</time>
      </trkpt>
      <trkpt lat="43.41406" lon="4.97768">
        <ele>10.263</ele>
        <time>2019-10-24T11:39:39.001Z</time>
      </trkpt>
      <trkpt lat="43.41474" lon="4.97701">
        <ele>7.827</ele>
        <time>2019-10-24T11:40:09.001Z</time>
      </trkpt>
      <trkpt lat="43.41503" lon="4.97681">
        <ele>8.211</ele>
        <time>2019-10-24T11:41:48.001Z</time>
      </trkpt>
      <trkpt lat="43.41541" lon="4.97678">
        <ele>8.087</ele>
        <time>2019-10-24T11:43:18.001Z</time>
      </trkpt>
      <trkpt lat="43.41596" lon="4.97624">
        <ele>8.166</ele>
        <time>2019-10-24T11:43:51.001Z</time>
      </trkpt>
      <trkpt lat="43.41649" lon="4.97582">
        <ele>6.338</ele>
        <time>2019-10-24T11:44:21.001Z</time>
      </trkpt>
      <trkpt lat="43.41736" lon="4.97541">
        <ele>7.918</ele>
        <time>2019-10-24T11:44:51.001Z</time>
      </trkpt>
      <trkpt lat="43.41841" lon="4.9749">
        <ele>11.026</ele>
        <time>2019-10-24T11:45:21.001Z</time>
      </trkpt>
      <trkpt lat="43.41954" lon="4.97436">
        <ele>10.189</ele>
        <time>2019-10-24T11:45:51.001Z</time>
      </trkpt>
      <trkpt lat="43.42086" lon="4.97355">
        <ele>2.385</ele>
        <time>2019-10-24T11:46:24.001Z</time>
      </trkpt>
      <trkpt lat="43.42166" lon="4.97304">
        <ele>2.286</ele>
        <time>2019-10-24T11:46:54.001Z</time>
      </trkpt>
      <trkpt lat="43.42256" lon="4.97244">
        <ele>5.12</ele>
        <time>2019-10-24T11:47:24.001Z</time>
      </trkpt>
      <trkpt lat="43.42308" lon="4.97203">
        <ele>7.077</ele>
        <time>2019-10-24T11:50:12.001Z</time>
      </trkpt>
      <trkpt lat="43.42368" lon="4.97152">
        <ele>6.756</ele>
        <time>2019-10-24T11:50:42.001Z</time>
      </trkpt>
      <trkpt lat="43.4243" lon="4.97084">
        <ele>5.926</ele>
        <time>2019-10-24T11:51:12.001Z</time>
      </trkpt>
      <trkpt lat="43.42486" lon="4.9702">
        <ele>5.088</ele>
        <time>2019-10-24T11:51:42.001Z</time>
      </trkpt>
      <trkpt lat="43.4255" lon="4.96965">
        <ele>4.056</ele>
        <time>2019-10-24T11:52:15.001Z</time>
      </trkpt>
      <trkpt lat="43.42614" lon="4.96867">
        <ele>3.565</ele>
        <time>2019-10-24T11:52:45.001Z</time>
      </trkpt>
      <trkpt lat="43.42654" lon="4.96731">
        <ele>2.865</ele>
        <time>2019-10-24T11:53:15.001Z</time>
      </trkpt>
      <trkpt lat="43.42685" lon="4.96586">
        <ele>0.985</ele>
        <time>2019-10-24T11:53:45.001Z</time>
      </trkpt>
      <trkpt lat="43.42712" lon="4.96432">
        <ele>0.189</ele>
        <time>2019-10-24T11:54:15.001Z</time>
      </trkpt>
      <trkpt lat="43.42736" lon="4.96288">
        <ele>0.595</ele>
        <time>2019-10-24T11:54:45.001Z</time>
      </trkpt>
      <trkpt lat="43.42759" lon="4.96146">
        <ele>1.5</ele>
        <time>2019-10-24T11:55:18.001Z</time>
      </trkpt>
      <trkpt lat="43.42778" lon="4.9605">
        <ele>1.232</ele>
        <time>2019-10-24T11:55:48.001Z</time>
      </trkpt>
      <trkpt lat="43.42793" lon="4.95954">
        <ele>1.678</ele>
        <time>2019-10-24T11:56:18.001Z</time>
      </trkpt>
      <trkpt lat="43.42813" lon="4.9584">
        <ele>2.475</ele>
        <time>2019-10-24T11:56:48.001Z</time>
      </trkpt>
      <trkpt lat="43.42828" lon="4.95738">
        <ele>0.592</ele>
        <time>2019-10-24T11:57:18.001Z</time>
      </trkpt>
      <trkpt lat="43.42838" lon="4.95652">
        <ele>1.789</ele>
        <time>2019-10-24T11:57:48.001Z</time>
      </trkpt>
      <trkpt lat="43.42851" lon="4.95569">
        <ele>0.593</ele>
        <time>2019-10-24T11:58:18.001Z</time>
      </trkpt>
      <trkpt lat="43.42868" lon="4.95468">
        <ele>1.5</ele>
        <time>2019-10-24T11:58:51.001Z</time>
      </trkpt>
      <trkpt lat="43.42887" lon="4.95363">
        <ele>2.2</ele>
        <time>2019-10-24T11:59:21.001Z</time>
      </trkpt>
      <trkpt lat="43.42899" lon="4.9525">
        <ele>1.998</ele>
        <time>2019-10-24T11:59:54.001Z</time>
      </trkpt>
      <trkpt lat="43.42913" lon="4.95161">
        <ele>3.04</ele>
        <time>2019-10-24T12:00:24.001Z</time>
      </trkpt>
      <trkpt lat="43.42923" lon="4.95099">
        <ele>2.865</ele>
        <time>2019-10-24T12:01:21.001Z</time>
      </trkpt>
      <trkpt lat="43.42945" lon="4.95013">
        <ele>5.226</ele>
        <time>2019-10-24T12:01:54.001Z</time>
      </trkpt>
      <trkpt lat="43.42971" lon="4.94895">
        <ele>3.07</ele>
        <time>2019-10-24T12:02:27.001Z</time>
      </trkpt>
      <trkpt lat="43.42984" lon="4.94785">
        <ele>3.444</ele>
        <time>2019-10-24T12:02:57.001Z</time>
      </trkpt>
      <trkpt lat="43.43013" lon="4.94662">
        <ele>3.376</ele>
        <time>2019-10-24T12:03:27.001Z</time>
      </trkpt>
      <trkpt lat="43.43046" lon="4.94508">
        <ele>3.493</ele>
        <time>2019-10-24T12:03:57.001Z</time>
      </trkpt>
      <trkpt lat="43.43084" lon="4.94339">
        <ele>3.141</ele>
        <time>2019-10-24T12:04:27.001Z</time>
      </trkpt>
      <trkpt lat="43.43103" lon="4.94195">
        <ele>2.8</ele>
        <time>2019-10-24T12:04:57.001Z</time>
      </trkpt>
      <trkpt lat="43.43044" lon="4.94282">
        <ele>5.564</ele>
        <time>2019-10-24T12:05:27.001Z</time>
      </trkpt>
      <trkpt lat="43.43062" lon="4.94394">
        <ele>10.624</ele>
        <time>2019-10-24T12:06:00Z</time>
      </trkpt>
      <trkpt lat="43.43161" lon="4.94449">
        <ele>17.056</ele>
        <time>2019-10-24T12:06:30.001Z</time>
      </trkpt>
      <trkpt lat="43.43216" lon="4.94628">
        <ele>7.432</ele>
        <time>2019-10-24T12:07:00Z</time>
      </trkpt>
      <trkpt lat="43.43205" lon="4.94643">
        <ele>8.144</ele>
        <time>2019-10-24T12:13:48.001Z</time>
      </trkpt>
      <trkpt lat="43.43151" lon="4.94684">
        <ele>8.446</ele>
        <time>2019-10-24T12:17:39.001Z</time>
      </trkpt>
      <trkpt lat="43.43096" lon="4.94608">
        <ele>2.477</ele>
        <time>2019-10-24T12:18:09.001Z</time>
      </trkpt>
      <trkpt lat="43.43178" lon="4.94398">
        <ele>4.1</ele>
        <time>2019-10-24T12:18:42.001Z</time>
      </trkpt>
      <trkpt lat="43.43277" lon="4.94229">
        <ele>0.264</ele>
        <time>2019-10-24T12:19:12.001Z</time>
      </trkpt>
      <trkpt lat="43.43371" lon="4.94098">
        <ele>3.702</ele>
        <time>2019-10-24T12:19:42.001Z</time>
      </trkpt>
      <trkpt lat="43.4327" lon="4.93954">
        <ele>5.004</ele>
        <time>2019-10-24T12:20:12.001Z</time>
      </trkpt>
      <trkpt lat="43.43306" lon="4.93751">
        <ele>2.507</ele>
        <time>2019-10-24T12:20:42.001Z</time>
      </trkpt>
      <trkpt lat="43.43355" lon="4.93544">
        <ele>1.964</ele>
        <time>2019-10-24T12:21:12.001Z</time>
      </trkpt>
      <trkpt lat="43.43406" lon="4.93323">
        <ele>1.293</ele>
        <time>2019-10-24T12:21:42.001Z</time>
      </trkpt>
      <trkpt lat="43.43463" lon="4.93079">
        <ele>0.417</ele>
        <time>2019-10-24T12:22:15.001Z</time>
      </trkpt>
      <trkpt lat="43.43517" lon="4.92854">
        <ele>2.4</ele>
        <time>2019-10-24T12:22:45.001Z</time>
      </trkpt>
      <trkpt lat="43.43571" lon="4.92625">
        <ele>5.1</ele>
        <time>2019-10-24T12:23:15.001Z</time>
      </trkpt>
      <trkpt lat="43.43624" lon="4.92398">
        <ele>0.203</ele>
        <time>2019-10-24T12:23:45.001Z</time>
      </trkpt>
      <trkpt lat="43.43676" lon="4.92173">
        <ele>0.186</ele>
        <time>2019-10-24T12:24:15.001Z</time>
      </trkpt>
      <trkpt lat="43.43728" lon="4.91952">
        <ele>1.874</ele>
        <time>2019-10-24T12:24:45.001Z</time>
      </trkpt>
      <trkpt lat="43.43776" lon="4.91739">
        <ele>6.012</ele>
        <time>2019-10-24T12:25:18.001Z</time>
      </trkpt>
      <trkpt lat="43.43804" lon="4.91624">
        <ele>10.719</ele>
        <time>2019-10-24T12:25:48.001Z</time>
      </trkpt>
      <trkpt lat="43.43833" lon="4.91502">
        <ele>11.74</ele>
        <time>2019-10-24T12:26:18.001Z</time>
      </trkpt>
      <trkpt lat="43.43903" lon="4.91343">
        <ele>15.062</ele>
        <time>2019-10-24T12:26:48.001Z</time>
      </trkpt>
      <trkpt lat="43.44069" lon="4.9121">
        <ele>6.076</ele>
        <time>2019-10-24T12:27:18.001Z</time>
      </trkpt>
      <trkpt lat="43.44248" lon="4.91386">
        <ele>3.581</ele>
        <time>2019-10-24T12:27:48.001Z</time>
      </trkpt>
      <trkpt lat="43.44404" lon="4.91535">
        <ele>4.558</ele>
        <time>2019-10-24T12:28:18.001Z</time>
      </trkpt>
      <trkpt lat="43.44595" lon="4.9162">
        <ele>3.558</ele>
        <time>2019-10-24T12:28:51.001Z</time>
      </trkpt>
      <trkpt lat="43.44765" lon="4.91694">
        <ele>5.941</ele>
        <time>2019-10-24T12:29:21.001Z</time>
      </trkpt>
      <trkpt lat="43.44939" lon="4.91771">
        <ele>9.165</ele>
        <time>2019-10-24T12:29:51.001Z</time>
      </trkpt>
      <trkpt lat="43.45117" lon="4.91828">
        <ele>10.435</ele>
        <time>2019-10-24T12:30:21.001Z</time>
      </trkpt>
      <trkpt lat="43.45291" lon="4.91716">
        <ele>8.607</ele>
        <time>2019-10-24T12:30:51.001Z</time>
      </trkpt>
      <trkpt lat="43.45408" lon="4.91496">
        <ele>5.012</ele>
        <time>2019-10-24T12:31:21.001Z</time>
      </trkpt>
      <trkpt lat="43.45508" lon="4.91237">
        <ele>5.038</ele>
        <time>2019-10-24T12:31:54.001Z</time>
      </trkpt>
      <trkpt lat="43.45587" lon="4.91007">
        <ele>5.127</ele>
        <time>2019-10-24T12:32:24.001Z</time>
      </trkpt>
      <trkpt lat="43.45676" lon="4.90789">
        <ele>3.737</ele>
        <time>2019-10-24T12:32:54.001Z</time>
      </trkpt>
      <trkpt lat="43.45776" lon="4.90578">
        <ele>3.678</ele>
        <time>2019-10-24T12:33:24.001Z</time>
      </trkpt>
      <trkpt lat="43.45878" lon="4.90367">
        <ele>2.962</ele>
        <time>2019-10-24T12:33:54.001Z</time>
      </trkpt>
      <trkpt lat="43.4598" lon="4.90164">
        <ele>5.693</ele>
        <time>2019-10-24T12:34:24.001Z</time>
      </trkpt>
      <trkpt lat="43.46102" lon="4.90004">
        <ele>8.136</ele>
        <time>2019-10-24T12:34:54.001Z</time>
      </trkpt>
      <trkpt lat="43.46262" lon="4.89886">
        <ele>7.894</ele>
        <time>2019-10-24T12:35:27.001Z</time>
      </trkpt>
      <trkpt lat="43.46423" lon="4.8984">
        <ele>8.829</ele>
        <time>2019-10-24T12:35:57.001Z</time>
      </trkpt>
      <trkpt lat="43.46586" lon="4.89818">
        <ele>9.351</ele>
        <time>2019-10-24T12:36:27.001Z</time>
      </trkpt>
      <trkpt lat="43.46752" lon="4.898">
        <ele>8.924</ele>
        <time>2019-10-24T12:36:57.001Z</time>
      </trkpt>
      <trkpt lat="43.46917" lon="4.89781">
        <ele>9.04</ele>
        <time>2019-10-24T12:37:27.001Z</time>
      </trkpt>
      <trkpt lat="43.47056" lon="4.89764">
        <ele>11.231</ele>
        <time>2019-10-24T12:37:57.001Z</time>
      </trkpt>
      <trkpt lat="43.47161" lon="4.89744">
        <ele>17.833</ele>
        <time>2019-10-24T12:38:30.001Z</time>
      </trkpt>
      <trkpt lat="43.47285" lon="4.89716">
        <ele>18.918</ele>
        <time>2019-10-24T12:39:00Z</time>
      </trkpt>
      <trkpt lat="43.47439" lon="4.8968">
        <ele>17.314</ele>
        <time>2019-10-24T12:39:30.001Z</time>
      </trkpt>
      <trkpt lat="43.47643" lon="4.89642">
        <ele>15.91</ele>
        <time>2019-10-24T12:40:00Z</time>
      </trkpt>
      <trkpt lat="43.47894" lon="4.89573">
        <ele>8.397</ele>
        <time>2019-10-24T12:40:30.001Z</time>
      </trkpt>
      <trkpt lat="43.48064" lon="4.89428">
        <ele>7.625</ele>
        <time>2019-10-24T12:41:00Z</time>
      </trkpt>
      <trkpt lat="43.48206" lon="4.8925">
        <ele>9.3</ele>
        <time>2019-10-24T12:41:30.001Z</time>
      </trkpt>
      <trkpt lat="43.48359" lon="4.89048">
        <ele>10.156</ele>
        <time>2019-10-24T12:42:03.001Z</time>
      </trkpt>
      <trkpt lat="43.48494" lon="4.88867">
        <ele>8.773</ele>
        <time>2019-10-24T12:42:33.001Z</time>
      </trkpt>
      <trkpt lat="43.48614" lon="4.88679">
        <ele>8.369</ele>
        <time>2019-10-24T12:43:03.001Z</time>
      </trkpt>
      <trkpt lat="43.48627" lon="4.88483">
        <ele>8.248</ele>
        <time>2019-10-24T12:43:33.001Z</time>
      </trkpt>
      <trkpt lat="43.48546" lon="4.88246">
        <ele>4.089</ele>
        <time>2019-10-24T12:44:03.001Z</time>
      </trkpt>
      <trkpt lat="43.48483" lon="4.87996">
        <ele>2.93</ele>
        <time>2019-10-24T12:44:33.001Z</time>
      </trkpt>
      <trkpt lat="43.48409" lon="4.87726">
        <ele>3.051</ele>
        <time>2019-10-24T12:45:06.001Z</time>
      </trkpt>
      <trkpt lat="43.48335" lon="4.87486">
        <ele>3.802</ele>
        <time>2019-10-24T12:45:36.001Z</time>
      </trkpt>
      <trkpt lat="43.48257" lon="4.87257">
        <ele>3.066</ele>
        <time>2019-10-24T12:46:06.001Z</time>
      </trkpt>
      <trkpt lat="43.48184" lon="4.87038">
        <ele>2.166</ele>
        <time>2019-10-24T12:46:36.001Z</time>
      </trkpt>
      <trkpt lat="43.48115" lon="4.86836">
        <ele>2.718</ele>
        <time>2019-10-24T12:47:06.001Z</time>
      </trkpt>
      <trkpt lat="43.48012" lon="4.86639">
        <ele>2.456</ele>
        <time>2019-10-24T12:47:36.001Z</time>
      </trkpt>
      <trkpt lat="43.47934" lon="4.86426">
        <ele>3.349</ele>
        <time>2019-10-24T12:48:06.001Z</time>
      </trkpt>
      <trkpt lat="43.47857" lon="4.86194">
        <ele>4.781</ele>
        <time>2019-10-24T12:48:39.001Z</time>
      </trkpt>
      <trkpt lat="43.47787" lon="4.85981">
        <ele>5.401</ele>
        <time>2019-10-24T12:49:09.001Z</time>
      </trkpt>
      <trkpt lat="43.47723" lon="4.85772">
        <ele>5.024</ele>
        <time>2019-10-24T12:49:39.001Z</time>
      </trkpt>
      <trkpt lat="43.47652" lon="4.85558">
        <ele>4.122</ele>
        <time>2019-10-24T12:50:09.001Z</time>
      </trkpt>
      <trkpt lat="43.47586" lon="4.85349">
        <ele>2.74</ele>
        <time>2019-10-24T12:50:39.001Z</time>
      </trkpt>
      <trkpt lat="43.47515" lon="4.85136">
        <ele>4.215</ele>
        <time>2019-10-24T12:51:09.001Z</time>
      </trkpt>
      <trkpt lat="43.47444" lon="4.84912">
        <ele>4.917</ele>
        <time>2019-10-24T12:51:42.001Z</time>
      </trkpt>
      <trkpt lat="43.47376" lon="4.84717">
        <ele>3.345</ele>
        <time>2019-10-24T12:52:12.001Z</time>
      </trkpt>
      <trkpt lat="43.4729" lon="4.84532">
        <ele>5.826</ele>
        <time>2019-10-24T12:52:42.001Z</time>
      </trkpt>
      <trkpt lat="43.47182" lon="4.8437">
        <ele>4.921</ele>
        <time>2019-10-24T12:53:12.001Z</time>
      </trkpt>
      <trkpt lat="43.4705" lon="4.84235">
        <ele>3.986</ele>
        <time>2019-10-24T12:53:42.001Z</time>
      </trkpt>
      <trkpt lat="43.46898" lon="4.84138">
        <ele>9.424</ele>
        <time>2019-10-24T12:54:12.001Z</time>
      </trkpt>
      <trkpt lat="43.46743" lon="4.84062">
        <ele>8.757</ele>
        <time>2019-10-24T12:54:42.001Z</time>
      </trkpt>
      <trkpt lat="43.4659" lon="4.83986">
        <ele>8.636</ele>
        <time>2019-10-24T12:55:15.001Z</time>
      </trkpt>
      <trkpt lat="43.46482" lon="4.83937">
        <ele>13.393</ele>
        <time>2019-10-24T12:55:45.001Z</time>
      </trkpt>
      <trkpt lat="43.46374" lon="4.83888">
        <ele>14.567</ele>
        <time>2019-10-24T12:56:15.001Z</time>
      </trkpt>
      <trkpt lat="43.46251" lon="4.8383">
        <ele>12.345</ele>
        <time>2019-10-24T12:56:45.001Z</time>
      </trkpt>
      <trkpt lat="43.46109" lon="4.83763">
        <ele>12.192</ele>
        <time>2019-10-24T12:57:15.001Z</time>
      </trkpt>
      <trkpt lat="43.45925" lon="4.83675">
        <ele>9.547</ele>
        <time>2019-10-24T12:57:45.001Z</time>
      </trkpt>
      <trkpt lat="43.45694" lon="4.83632">
        <ele>3.672</ele>
        <time>2019-10-24T12:58:18.001Z</time>
      </trkpt>
      <trkpt lat="43.4553" lon="4.83662">
        <ele>6.111</ele>
        <time>2019-10-24T12:58:48.001Z</time>
      </trkpt>
      <trkpt lat="43.45362" lon="4.83694">
        <ele>8.519</ele>
        <time>2019-10-24T12:59:18.001Z</time>
      </trkpt>
      <trkpt lat="43.45203" lon="4.83725">
        <ele>10.444</ele>
        <time>2019-10-24T12:59:48.001Z</time>
      </trkpt>
      <trkpt lat="43.45042" lon="4.83736">
        <ele>8.723</ele>
        <time>2019-10-24T13:00:18.001Z</time>
      </trkpt>
      <trkpt lat="43.44887" lon="4.83779">
        <ele>8.907</ele>
        <time>2019-10-24T13:00:48.001Z</time>
      </trkpt>
      <trkpt lat="43.44729" lon="4.83801">
        <ele>8</ele>
        <time>2019-10-24T13:01:18.001Z</time>
      </trkpt>
      <trkpt lat="43.44554" lon="4.83809">
        <ele>6.676</ele>
        <time>2019-10-24T13:01:51.001Z</time>
      </trkpt>
      <trkpt lat="43.444" lon="4.83767">
        <ele>4.602</ele>
        <time>2019-10-24T13:02:21.001Z</time>
      </trkpt>
      <trkpt lat="43.44247" lon="4.83679">
        <ele>3.814</ele>
        <time>2019-10-24T13:02:51.001Z</time>
      </trkpt>
      <trkpt lat="43.44103" lon="4.83551">
        <ele>2.613</ele>
        <time>2019-10-24T13:03:21.001Z</time>
      </trkpt>
      <trkpt lat="43.43969" lon="4.83409">
        <ele>3.355</ele>
        <time>2019-10-24T13:03:51.001Z</time>
      </trkpt>
      <trkpt lat="43.43836" lon="4.83265">
        <ele>3.123</ele>
        <time>2019-10-24T13:04:21.001Z</time>
      </trkpt>
      <trkpt lat="43.43688" lon="4.83106">
        <ele>3.737</ele>
        <time>2019-10-24T13:04:54.001Z</time>
      </trkpt>
      <trkpt lat="43.43559" lon="4.82962">
        <ele>7.502</ele>
        <time>2019-10-24T13:05:24.001Z</time>
      </trkpt>
      <trkpt lat="43.43428" lon="4.82823">
        <ele>5.469</ele>
        <time>2019-10-24T13:05:54.001Z</time>
      </trkpt>
      <trkpt lat="43.43304" lon="4.82688">
        <ele>2.465</ele>
        <time>2019-10-24T13:06:24.001Z</time>
      </trkpt>
      <trkpt lat="43.43175" lon="4.8255">
        <ele>3.439</ele>
        <time>2019-10-24T13:06:54.001Z</time>
      </trkpt>
      <trkpt lat="43.43053" lon="4.82411">
        <ele>3.683</ele>
        <time>2019-10-24T13:07:24.001Z</time>
      </trkpt>
      <trkpt lat="43.42936" lon="4.82266">
        <ele>6.734</ele>
        <time>2019-10-24T13:07:54.001Z</time>
      </trkpt>
      <trkpt lat="43.42815" lon="4.82108">
        <ele>4.546</ele>
        <time>2019-10-24T13:08:27.001Z</time>
      </trkpt>
      <trkpt lat="43.42708" lon="4.8196">
        <ele>4.594</ele>
        <time>2019-10-24T13:08:57.001Z</time>
      </trkpt>
      <trkpt lat="43.42603" lon="4.81807">
        <ele>3.772</ele>
        <time>2019-10-24T13:09:27.001Z</time>
      </trkpt>
      <trkpt lat="43.42498" lon="4.81652">
        <ele>4.804</ele>
        <time>2019-10-24T13:09:57.001Z</time>
      </trkpt>
      <trkpt lat="43.42392" lon="4.81501">
        <ele>4.929</ele>
        <time>2019-10-24T13:10:27.001Z</time>
      </trkpt>
      <trkpt lat="43.42279" lon="4.81364">
        <ele>2.513</ele>
        <time>2019-10-24T13:10:57.001Z</time>
      </trkpt>
      <trkpt lat="43.42176" lon="4.812">
        <ele>2.466</ele>
        <time>2019-10-24T13:11:30.001Z</time>
      </trkpt>
      <trkpt lat="43.42084" lon="4.81038">
        <ele>3.594</ele>
        <time>2019-10-24T13:12:00Z</time>
      </trkpt>
      <trkpt lat="43.41981" lon="4.8089">
        <ele>3.102</ele>
        <time>2019-10-24T13:12:30.001Z</time>
      </trkpt>
      <trkpt lat="43.41878" lon="4.80744">
        <ele>3.796</ele>
        <time>2019-10-24T13:13:00Z</time>
      </trkpt>
      <trkpt lat="43.41776" lon="4.80593">
        <ele>2.812</ele>
        <time>2019-10-24T13:13:30.001Z</time>
      </trkpt>
      <trkpt lat="43.4167" lon="4.8044">
        <ele>4.45</ele>
        <time>2019-10-24T13:14:00Z</time>
      </trkpt>
      <trkpt lat="43.41569" lon="4.80292">
        <ele>3.471</ele>
        <time>2019-10-24T13:14:30.001Z</time>
      </trkpt>
      <trkpt lat="43.41455" lon="4.80123">
        <ele>4.534</ele>
        <time>2019-10-24T13:15:03.001Z</time>
      </trkpt>
      <trkpt lat="43.41357" lon="4.79972">
        <ele>5.308</ele>
        <time>2019-10-24T13:15:33.001Z</time>
      </trkpt>
      <trkpt lat="43.41267" lon="4.79808">
        <ele>6.632</ele>
        <time>2019-10-24T13:16:03.001Z</time>
      </trkpt>
      <trkpt lat="43.41192" lon="4.79637">
        <ele>3.862</ele>
        <time>2019-10-24T13:16:33.001Z</time>
      </trkpt>
      <trkpt lat="43.41132" lon="4.79491">
        <ele>5.629</ele>
        <time>2019-10-24T13:17:03.001Z</time>
      </trkpt>
      <trkpt lat="43.41072" lon="4.79368">
        <ele>9.287</ele>
        <time>2019-10-24T13:17:33.001Z</time>
      </trkpt>
      <trkpt lat="43.40985" lon="4.79234">
        <ele>9.149</ele>
        <time>2019-10-24T13:18:06.001Z</time>
      </trkpt>
      <trkpt lat="43.40888" lon="4.79121">
        <ele>8.587</ele>
        <time>2019-10-24T13:18:36.001Z</time>
      </trkpt>
      <trkpt lat="43.40775" lon="4.79026">
        <ele>9.334</ele>
        <time>2019-10-24T13:19:06.001Z</time>
      </trkpt>
      <trkpt lat="43.40634" lon="4.78944">
        <ele>10.666</ele>
        <time>2019-10-24T13:19:36.001Z</time>
      </trkpt>
      <trkpt lat="43.40467" lon="4.78854">
        <ele>4.369</ele>
        <time>2019-10-24T13:20:06.001Z</time>
      </trkpt>
      <trkpt lat="43.40381" lon="4.78702">
        <ele>3.693</ele>
        <time>2019-10-24T13:20:36.001Z</time>
      </trkpt>
      <trkpt lat="43.40511" lon="4.78569">
        <ele>2.016</ele>
        <time>2019-10-24T13:21:06.001Z</time>
      </trkpt>
      <trkpt lat="43.40653" lon="4.78432">
        <ele>1.266</ele>
        <time>2019-10-24T13:21:39.001Z</time>
      </trkpt>
      <trkpt lat="43.40781" lon="4.78306">
        <ele>2.95</ele>
        <time>2019-10-24T13:22:09.001Z</time>
      </trkpt>
      <trkpt lat="43.4091" lon="4.78181">
        <ele>1.74</ele>
        <time>2019-10-24T13:22:39.001Z</time>
      </trkpt>
      <trkpt lat="43.41035" lon="4.78058">
        <ele>0.577</ele>
        <time>2019-10-24T13:23:09.001Z</time>
      </trkpt>
      <trkpt lat="43.41161" lon="4.77937">
        <ele>0.75</ele>
        <time>2019-10-24T13:23:39.001Z</time>
      </trkpt>
      <trkpt lat="43.41289" lon="4.77812">
        <ele>1.667</ele>
        <time>2019-10-24T13:24:09.001Z</time>
      </trkpt>
      <trkpt lat="43.41433" lon="4.7767">
        <ele>2.599</ele>
        <time>2019-10-24T13:24:42.001Z</time>
      </trkpt>
      <trkpt lat="43.4157" lon="4.7754">
        <ele>1</ele>
        <time>2019-10-24T13:25:12.001Z</time>
      </trkpt>
      <trkpt lat="43.41697" lon="4.77414">
        <ele>0.43</ele>
        <time>2019-10-24T13:25:42.001Z</time>
      </trkpt>
      <trkpt lat="43.41819" lon="4.77292">
        <ele>0.946</ele>
        <time>2019-10-24T13:26:12.001Z</time>
      </trkpt>
      <trkpt lat="43.41943" lon="4.77172">
        <ele>2</ele>
        <time>2019-10-24T13:26:42.001Z</time>
      </trkpt>
      <trkpt lat="43.42067" lon="4.77051">
        <ele>1.016</ele>
        <time>2019-10-24T13:27:12.001Z</time>
      </trkpt>
      <trkpt lat="43.42193" lon="4.76931">
        <ele>1</ele>
        <time>2019-10-24T13:27:42.001Z</time>
      </trkpt>
      <trkpt lat="43.4231" lon="4.76811">
        <ele>3.166</ele>
        <time>2019-10-24T13:28:15.001Z</time>
      </trkpt>
      <trkpt lat="43.42395" lon="4.7673">
        <ele>5.334</ele>
        <time>2019-10-24T13:28:45.001Z</time>
      </trkpt>
      <trkpt lat="43.42497" lon="4.76639">
        <ele>5.584</ele>
        <time>2019-10-24T13:29:15.001Z</time>
      </trkpt>
      <trkpt lat="43.42539" lon="4.76531">
        <ele>5.159</ele>
        <time>2019-10-24T13:29:45.001Z</time>
      </trkpt>
      <trkpt lat="43.42508" lon="4.76288">
        <ele>2.874</ele>
        <time>2019-10-24T13:30:15.001Z</time>
      </trkpt>
      <trkpt lat="43.42435" lon="4.76051">
        <ele>0.672</ele>
        <time>2019-10-24T13:30:45.001Z</time>
      </trkpt>
      <trkpt lat="43.42333" lon="4.75846">
        <ele>0.403</ele>
        <time>2019-10-24T13:31:18.001Z</time>
      </trkpt>
      <trkpt lat="43.42246" lon="4.75665">
        <ele>2.472</ele>
        <time>2019-10-24T13:31:48.001Z</time>
      </trkpt>
      <trkpt lat="43.42174" lon="4.75471">
        <ele>1.196</ele>
        <time>2019-10-24T13:32:18.001Z</time>
      </trkpt>
      <trkpt lat="43.42125" lon="4.75258">
        <ele>0.749</ele>
        <time>2019-10-24T13:32:48.001Z</time>
      </trkpt>
      <trkpt lat="43.42103" lon="4.75045">
        <ele>0.023</ele>
        <time>2019-10-24T13:33:18.001Z</time>
      </trkpt>
      <trkpt lat="43.42077" lon="4.74889">
        <ele>2.186</ele>
        <time>2019-10-24T13:33:48.001Z</time>
      </trkpt>
      <trkpt lat="43.42012" lon="4.74818">
        <ele>3.895</ele>
        <time>2019-10-24T13:34:18.001Z</time>
      </trkpt>
      <trkpt lat="43.41989" lon="4.74811">
        <ele>4.336</ele>
        <time>2019-10-24T13:36:30.001Z</time>
      </trkpt>
      <trkpt lat="43.41998" lon="4.7481">
        <ele>4.327</ele>
        <time>2019-10-24T13:37:33.001Z</time>
      </trkpt>
      <trkpt lat="43.41961" lon="4.74793">
        <ele>3.793</ele>
        <time>2019-10-24T13:42:42.001Z</time>
      </trkpt>
      <trkpt lat="43.41948" lon="4.74784">
        <ele>3.727</ele>
        <time>2019-10-24T13:43:36.001Z</time>
      </trkpt>
      <trkpt lat="43.4187" lon="4.74742">
        <ele>3.732</ele>
        <time>2019-10-24T13:45:09.001Z</time>
      </trkpt>
      <trkpt lat="43.4181" lon="4.74694">
        <ele>6.561</ele>
        <time>2019-10-24T13:45:39.001Z</time>
      </trkpt>
      <trkpt lat="43.41776" lon="4.74591">
        <ele>5.579</ele>
        <time>2019-10-24T13:46:12.001Z</time>
      </trkpt>
      <trkpt lat="43.41787" lon="4.74501">
        <ele>4.064</ele>
        <time>2019-10-24T13:46:45.001Z</time>
      </trkpt>
      <trkpt lat="43.41799" lon="4.74433">
        <ele>10.556</ele>
        <time>2019-10-24T13:49:03.001Z</time>
      </trkpt>
      <trkpt lat="43.41812" lon="4.74307">
        <ele>7.943</ele>
        <time>2019-10-24T13:49:33.001Z</time>
      </trkpt>
      <trkpt lat="43.41755" lon="4.74119">
        <ele>3.687</ele>
        <time>2019-10-24T13:50:03.001Z</time>
      </trkpt>
      <trkpt lat="43.41673" lon="4.7395">
        <ele>0.842</ele>
        <time>2019-10-24T13:50:33.001Z</time>
      </trkpt>
      <trkpt lat="43.41597" lon="4.73789">
        <ele>0.266</ele>
        <time>2019-10-24T13:51:03.001Z</time>
      </trkpt>
      <trkpt lat="43.41492" lon="4.73818">
        <ele>0.947</ele>
        <time>2019-10-24T13:51:36.001Z</time>
      </trkpt>
      <trkpt lat="43.41388" lon="4.73916">
        <ele>4.177</ele>
        <time>2019-10-24T13:52:06.001Z</time>
      </trkpt>
      <trkpt lat="43.41284" lon="4.74009">
        <ele>0.48</ele>
        <time>2019-10-24T13:52:36.001Z</time>
      </trkpt>
    </trkseg>
  </trk>
</gpx>